createdAt,value
2019-02-17T00:02:00.012Z,60.50
2019-02-17T00:04:29.680Z,60.23
2019-02-17T00:06:59.339Z,59.80
2019-02-17T00:09:29.107Z,58.57
2019-02-17T00:11:58.832Z,60.23
2019-02-17T00:14:29.076Z,54.90
2019-02-17T00:16:59.367Z,59.07
2019-02-17T00:19:31.764Z,55.03
2019-02-17T00:22:02.899Z,56.70
2019-02-17T00:24:32.801Z,58.33
2019-02-17T00:27:04.087Z,59.23
2019-02-17T00:29:33.862Z,59.37
2019-02-17T00:32:03.552Z,56.77
2019-02-17T00:34:35.219Z,56.33
2019-02-17T00:37:05.208Z,53.43
2019-02-17T00:39:34.933Z,56.20
2019-02-17T00:42:04.657Z,57.20
2019-02-17T00:44:34.426Z,56.50
2019-02-17T00:47:05.468Z,58.70
2019-02-17T00:49:35.198Z,59.63
2019-02-17T00:52:04.890Z,54.80
2019-02-17T00:54:34.672Z,55.67
2019-02-17T00:57:04.349Z,54.03
2019-02-17T00:59:34.033Z,54.27
2019-02-17T01:02:03.793Z,55.23
2019-02-17T01:04:33.466Z,55.37
2019-02-17T01:07:03.149Z,54.80
2019-02-17T01:09:32.885Z,56.10
2019-02-17T01:12:02.615Z,57.90
2019-02-17T01:14:32.327Z,53.23
2019-02-17T01:17:03.240Z,54.90
2019-02-17T01:19:32.895Z,57.67
2019-02-17T01:22:02.565Z,53.07
2019-02-17T01:24:32.276Z,56.03
2019-02-17T01:27:04.137Z,56.03
2019-02-17T01:29:33.817Z,57.30
2019-02-17T01:32:03.576Z,55.47
2019-02-17T01:34:33.273Z,53.40
2019-02-17T01:37:03.093Z,58.90
2019-02-17T01:39:32.804Z,58.40
2019-02-17T01:42:04.140Z,57.57
2019-02-17T01:44:33.872Z,54.20
2019-02-17T01:47:05.074Z,55.03
2019-02-17T01:49:34.759Z,52.90
2019-02-17T01:52:04.498Z,53.63
2019-02-17T01:54:35.698Z,57.20
2019-02-17T01:57:05.445Z,55.47
2019-02-17T01:59:35.197Z,57.63
2019-02-17T02:02:06.540Z,57.33
2019-02-17T02:04:37.210Z,56.37
2019-02-17T02:07:06.953Z,57.17
2019-02-17T02:09:36.653Z,57.77
2019-02-17T02:12:06.898Z,54.47
2019-02-17T02:14:36.575Z,55.37
2019-02-17T02:17:09.859Z,59.87
2019-02-17T02:19:39.657Z,56.93
2019-02-17T02:22:09.341Z,56.60
2019-02-17T02:24:40.088Z,59.83
2019-02-17T02:27:09.778Z,63.23
2019-02-17T02:29:41.346Z,59.93
2019-02-17T02:32:10.857Z,59.63
2019-02-17T02:34:40.526Z,59.43
2019-02-17T02:37:10.194Z,60.57
2019-02-17T02:39:40.366Z,58.77
2019-02-17T02:42:10.382Z,57.30
2019-02-17T02:44:40.116Z,60.07
2019-02-17T02:47:09.813Z,57.83
2019-02-17T02:49:39.597Z,55.37
2019-02-17T02:52:09.274Z,55.20
2019-02-17T02:54:40.121Z,55.60
2019-02-17T02:57:09.792Z,58.93
2019-02-17T02:59:39.466Z,58.03
2019-02-17T03:02:09.240Z,58.07
2019-02-17T03:04:38.907Z,66.10
2019-02-17T03:07:08.932Z,57.87
2019-02-17T03:09:38.636Z,57.77
2019-02-17T03:12:08.432Z,61.07
2019-02-17T03:14:38.142Z,65.40
2019-02-17T03:17:07.946Z,63.87
2019-02-17T03:19:37.616Z,64.40
2019-02-17T03:22:07.292Z,66.33
2019-02-17T03:24:37.086Z,65.37
2019-02-17T03:27:27.482Z,65.10
2019-02-17T03:30:04.938Z,63.63
2019-02-17T03:32:47.873Z,71.13
2019-02-17T03:35:17.569Z,66.10
2019-02-17T03:37:47.338Z,65.90
2019-02-17T03:40:17.007Z,66.00
2019-02-17T03:42:46.699Z,69.23
2019-02-17T03:45:16.369Z,67.80
2019-02-17T03:47:46.030Z,67.07
2019-02-17T03:50:15.748Z,63.80
2019-02-17T03:52:45.411Z,66.00
2019-02-17T03:55:15.175Z,66.77
2019-02-17T03:57:44.953Z,62.63
2019-02-17T04:00:17.239Z,62.40
2019-02-17T04:02:46.105Z,62.27
2019-02-17T04:05:15.807Z,61.70
2019-02-17T04:07:45.485Z,63.57
2019-02-17T04:10:15.195Z,63.13
2019-02-17T04:12:46.574Z,64.30
2019-02-17T04:15:16.320Z,60.03
2019-02-17T04:17:45.993Z,62.77
2019-02-17T04:20:15.693Z,65.03
2019-02-17T04:22:45.783Z,62.43
2019-02-17T04:25:15.459Z,63.37
2019-02-17T04:27:45.141Z,61.57
2019-02-17T04:30:14.815Z,63.37
2019-02-17T04:32:44.493Z,67.30
2019-02-17T04:35:14.185Z,64.73
2019-02-17T04:37:43.872Z,68.37
2019-02-17T04:40:13.711Z,65.33
2019-02-17T04:42:44.021Z,63.67
2019-02-17T04:45:14.492Z,65.27
2019-02-17T04:47:44.192Z,67.03
2019-02-17T04:50:13.893Z,64.37
2019-02-17T04:52:43.554Z,62.03
2019-02-17T04:55:13.215Z,65.93
2019-02-17T04:57:43.347Z,71.23
2019-02-17T05:00:13.037Z,68.27
2019-02-17T05:02:42.711Z,66.07
2019-02-17T05:05:12.401Z,68.87
2019-02-17T05:08:01.352Z,64.47
2019-02-17T05:10:31.048Z,64.47
2019-02-17T05:13:00.711Z,64.73
2019-02-17T05:15:30.369Z,67.67
2019-02-17T05:18:00.065Z,67.87
2019-02-17T05:20:29.815Z,67.73
2019-02-17T05:22:59.499Z,67.07
2019-02-17T05:25:29.189Z,67.23
2019-02-17T05:27:58.863Z,71.17
2019-02-17T05:30:28.633Z,67.77
2019-02-17T05:32:58.321Z,64.37
2019-02-17T05:35:27.999Z,65.40
2019-02-17T05:37:57.651Z,64.97
2019-02-17T05:40:27.363Z,66.60
2019-02-17T05:42:57.028Z,68.23
2019-02-17T05:45:26.717Z,65.80
2019-02-17T05:47:56.695Z,68.73
2019-02-17T05:50:26.367Z,67.10
2019-02-17T05:52:56.099Z,66.17
2019-02-17T05:55:25.779Z,71.23
2019-02-17T05:57:55.537Z,66.47
2019-02-17T06:00:26.307Z,67.70
2019-02-17T06:02:56.063Z,67.80
2019-02-17T06:05:25.731Z,67.03
2019-02-17T06:08:14.764Z,66.87
2019-02-17T06:10:44.432Z,65.87
2019-02-17T06:13:15.509Z,69.20
2019-02-17T06:15:45.811Z,68.53
2019-02-17T06:18:36.105Z,66.43
2019-02-17T06:21:05.789Z,66.53
2019-02-17T06:23:37.085Z,68.07
2019-02-17T06:26:08.181Z,67.80
2019-02-17T06:28:39.332Z,68.57
2019-02-17T06:31:14.311Z,68.17
2019-02-17T06:33:41.543Z,66.77
2019-02-17T06:36:11.225Z,65.77
2019-02-17T06:38:40.893Z,67.23
2019-02-17T06:41:12.023Z,66.67
2019-02-17T06:43:41.719Z,62.90
2019-02-17T06:46:13.017Z,62.83
2019-02-17T06:48:42.678Z,68.67
2019-02-17T06:51:12.375Z,65.30
2019-02-17T06:53:42.038Z,65.00
2019-02-17T06:56:31.524Z,71.50
2019-02-17T06:59:01.192Z,69.60
2019-02-17T07:01:30.933Z,67.67
2019-02-17T07:04:01.021Z,67.30
2019-02-17T07:06:42.715Z,69.53
2019-02-17T07:09:12.431Z,69.00
2019-02-17T07:11:42.294Z,69.10
2019-02-17T07:14:12.443Z,69.67
2019-02-17T07:16:42.284Z,63.60
2019-02-17T07:19:12.059Z,65.33
2019-02-17T07:21:41.723Z,70.73
2019-02-17T07:24:11.407Z,67.60
2019-02-17T07:26:41.077Z,66.80
2019-02-17T07:29:10.752Z,66.57
2019-02-17T07:31:41.869Z,64.40
2019-02-17T07:34:11.534Z,66.47
2019-02-17T07:36:42.837Z,69.37
2019-02-17T07:39:12.534Z,71.07
2019-02-17T07:41:42.278Z,71.27
2019-02-17T07:44:11.939Z,66.20
2019-02-17T07:46:41.614Z,70.50
2019-02-17T07:49:12.484Z,69.50
2019-02-17T07:51:42.166Z,67.80
2019-02-17T07:54:12.915Z,65.97
2019-02-17T07:56:42.593Z,69.20
2019-02-17T07:59:13.758Z,70.93
2019-02-17T08:01:45.569Z,70.97
2019-02-17T08:04:17.664Z,71.20
2019-02-17T08:06:47.321Z,73.27
2019-02-17T08:09:17.011Z,71.97
2019-02-17T08:11:46.677Z,74.17
2019-02-17T08:14:17.985Z,68.23
2019-02-17T08:16:47.684Z,69.20
2019-02-17T08:19:17.438Z,70.00
2019-02-17T08:21:47.107Z,70.70
2019-02-17T08:24:16.881Z,73.90
2019-02-17T08:26:48.192Z,74.63
2019-02-17T08:29:17.859Z,68.90
2019-02-17T08:31:55.545Z,71.63
2019-02-17T08:34:18.965Z,73.50
2019-02-17T08:36:48.633Z,77.47
2019-02-17T08:39:18.315Z,70.87
2019-02-17T08:41:47.997Z,66.50
2019-02-17T08:44:17.684Z,70.17
2019-02-17T08:46:47.375Z,70.57
2019-02-17T08:49:17.027Z,72.27
2019-02-17T08:51:46.714Z,67.60
2019-02-17T08:54:16.351Z,75.63
2019-02-17T08:56:46.308Z,70.43
2019-02-17T08:59:16.054Z,68.73
2019-02-17T09:01:46.456Z,67.93
2019-02-17T09:04:16.114Z,69.87
2019-02-17T09:06:48.892Z,66.03
2019-02-17T09:09:18.584Z,70.10
2019-02-17T09:11:49.184Z,71.57
2019-02-17T09:14:20.341Z,69.70
2019-02-17T09:16:50.069Z,72.77
2019-02-17T09:19:19.794Z,70.37
2019-02-17T09:21:49.528Z,66.33
2019-02-17T09:24:19.259Z,65.67
2019-02-17T09:26:50.577Z,71.30
2019-02-17T09:29:20.357Z,68.03
2019-02-17T09:31:50.048Z,67.17
2019-02-17T09:34:19.733Z,65.93
2019-02-17T09:36:55.595Z,65.43
2019-02-17T09:39:25.286Z,67.10
2019-02-17T09:41:54.950Z,70.30
2019-02-17T09:44:24.660Z,66.27
2019-02-17T09:46:54.337Z,70.57
2019-02-17T09:49:24.814Z,64.83
2019-02-17T09:51:55.984Z,65.00
2019-02-17T09:54:25.705Z,65.30
2019-02-17T09:56:56.470Z,64.67
2019-02-17T09:59:26.167Z,64.73
2019-02-17T10:01:56.168Z,65.97
2019-02-17T10:04:26.076Z,68.17
2019-02-17T10:06:55.828Z,65.00
2019-02-17T10:09:25.506Z,63.40
2019-02-17T10:11:55.270Z,64.50
2019-02-17T10:14:26.629Z,65.07
2019-02-17T10:16:56.300Z,64.80
2019-02-17T10:19:26.002Z,64.50
2019-02-17T10:21:55.722Z,62.63
2019-02-17T10:24:25.460Z,70.80
2019-02-17T10:26:55.181Z,66.43
2019-02-17T10:29:24.850Z,66.73
2019-02-17T10:31:54.528Z,68.07
2019-02-17T10:34:24.311Z,65.33
2019-02-17T10:36:54.026Z,63.80
2019-02-17T10:39:23.716Z,64.23
2019-02-17T10:41:53.399Z,64.67
2019-02-17T10:44:23.097Z,63.17
2019-02-17T10:46:54.282Z,64.83
2019-02-17T10:49:23.944Z,64.47
2019-02-17T10:51:55.165Z,65.50
2019-02-17T10:54:24.843Z,65.27
2019-02-17T10:56:54.518Z,66.73
2019-02-17T10:59:24.390Z,64.53
2019-02-17T11:01:54.342Z,64.27
2019-02-17T11:04:24.029Z,63.10
2019-02-17T11:06:53.722Z,64.87
2019-02-17T11:09:23.785Z,64.30
2019-02-17T11:11:53.485Z,65.77
2019-02-17T11:14:23.250Z,64.40
2019-02-17T11:16:53.023Z,63.57
2019-02-17T11:19:22.699Z,63.57
2019-02-17T11:21:52.537Z,65.23
2019-02-17T11:24:22.213Z,66.40
2019-02-17T11:26:51.956Z,64.63
2019-02-17T11:29:21.818Z,64.47
2019-02-17T11:31:51.504Z,65.93
2019-02-17T11:34:21.182Z,67.17
2019-02-17T11:36:50.887Z,62.33
2019-02-17T11:39:20.729Z,63.97
2019-02-17T11:41:50.428Z,63.10
2019-02-17T11:44:20.191Z,65.17
2019-02-17T11:46:49.968Z,64.50
2019-02-17T11:49:19.966Z,62.63
2019-02-17T11:51:53.936Z,64.30
2019-02-17T11:54:23.594Z,63.57
2019-02-17T11:56:53.606Z,65.47
2019-02-17T11:59:23.310Z,68.90
2019-02-17T12:01:59.916Z,69.17
2019-02-17T12:04:29.649Z,65.77
2019-02-17T12:07:04.457Z,65.27
2019-02-17T12:09:34.120Z,67.23
2019-02-17T12:12:03.833Z,62.93
2019-02-17T12:14:34.391Z,66.07
2019-02-17T12:17:03.944Z,60.80
2019-02-17T12:19:33.709Z,62.33
2019-02-17T12:22:09.647Z,63.50
2019-02-17T12:24:40.960Z,66.37
2019-02-17T12:27:12.364Z,64.23
2019-02-17T12:29:46.699Z,65.10
2019-02-17T12:32:19.646Z,60.17
2019-02-17T12:34:49.342Z,69.43
2019-02-17T12:37:19.117Z,62.50
2019-02-17T12:39:49.014Z,66.63
2019-02-17T12:42:18.800Z,64.20
2019-02-17T12:44:51.306Z,64.07
2019-02-17T12:47:20.984Z,61.67
2019-02-17T12:49:50.838Z,65.93
2019-02-17T12:52:21.725Z,61.73
2019-02-17T12:54:51.388Z,64.63
2019-02-17T12:57:21.055Z,64.23
2019-02-17T12:59:50.752Z,69.20
2019-02-17T13:02:22.296Z,61.73
2019-02-17T13:04:51.971Z,64.83
2019-02-17T13:07:21.683Z,60.40
2019-02-17T13:09:51.375Z,62.77
2019-02-17T13:12:21.303Z,63.63
2019-02-17T13:14:50.983Z,63.07
2019-02-17T13:17:20.677Z,60.57
2019-02-17T13:19:50.335Z,63.83
2019-02-17T13:22:20.101Z,63.63
2019-02-17T13:24:53.943Z,62.60
2019-02-17T13:27:23.612Z,65.07
2019-02-17T13:29:53.398Z,65.60
2019-02-17T13:32:23.142Z,61.60
2019-02-17T13:34:52.805Z,64.27
2019-02-17T13:37:22.556Z,64.17
2019-02-17T13:39:52.219Z,69.13
2019-02-17T13:42:25.103Z,65.33
2019-02-17T13:44:54.868Z,62.57
2019-02-17T13:47:24.555Z,64.27
2019-02-17T13:49:55.746Z,68.07
2019-02-17T13:52:25.451Z,67.93
2019-02-17T13:54:56.488Z,66.03
2019-02-17T13:57:33.649Z,66.23
2019-02-17T14:00:03.992Z,64.30
2019-02-17T14:02:33.688Z,59.50
2019-02-17T14:05:03.396Z,65.63
2019-02-17T14:07:33.137Z,64.53
2019-02-17T14:10:02.814Z,62.93
2019-02-17T14:12:32.503Z,67.17
2019-02-17T14:15:02.254Z,63.80
2019-02-17T14:17:32.025Z,65.47
2019-02-17T14:20:01.790Z,61.40
2019-02-17T14:22:31.448Z,64.57
2019-02-17T14:25:01.184Z,62.83
2019-02-17T14:27:30.934Z,64.50
2019-02-17T14:30:00.666Z,64.53
2019-02-17T14:32:30.405Z,66.63
2019-02-17T14:35:01.892Z,62.63
2019-02-17T14:37:31.580Z,62.23
2019-02-17T14:40:01.242Z,61.17
2019-02-17T14:42:35.203Z,63.57
2019-02-17T14:45:08.291Z,61.30
2019-02-17T14:47:38.795Z,64.30
2019-02-17T14:50:10.277Z,63.27
2019-02-17T14:52:39.953Z,64.43
2019-02-17T14:55:11.666Z,65.43
2019-02-17T14:57:41.333Z,66.77
2019-02-17T15:00:16.668Z,65.10
2019-02-17T15:02:46.341Z,62.87
2019-02-17T15:05:16.234Z,64.27
2019-02-17T15:07:46.007Z,65.93
2019-02-17T15:10:15.974Z,65.67
2019-02-17T15:12:45.809Z,70.03
2019-02-17T15:15:19.058Z,65.47
2019-02-17T15:17:50.409Z,69.63
2019-02-17T15:20:26.593Z,64.53
2019-02-17T15:22:56.326Z,71.87
2019-02-17T15:25:26.008Z,62.17
2019-02-17T15:27:55.760Z,64.37
2019-02-17T15:30:25.451Z,67.47
2019-02-17T15:33:03.550Z,65.70
2019-02-17T15:35:26.542Z,68.47
2019-02-17T15:37:56.682Z,66.23
2019-02-17T15:40:26.422Z,64.63
2019-02-17T15:42:56.130Z,64.00
2019-02-17T15:45:25.810Z,66.47
2019-02-17T15:47:55.490Z,65.00
2019-02-17T15:50:25.201Z,67.67
2019-02-17T15:52:56.437Z,71.80
2019-02-17T15:55:26.211Z,73.93
2019-02-17T15:57:57.544Z,71.60
2019-02-17T16:00:27.463Z,69.20
2019-02-17T16:02:57.214Z,68.60
2019-02-17T16:05:26.955Z,69.57
2019-02-17T16:07:56.689Z,68.83
2019-02-17T16:10:28.047Z,68.73
2019-02-17T16:12:58.962Z,69.17
2019-02-17T16:15:28.715Z,70.30
2019-02-17T16:17:58.367Z,69.03
2019-02-17T16:20:28.140Z,71.30
2019-02-17T16:22:57.887Z,71.77
2019-02-17T16:25:27.527Z,70.60
2019-02-17T16:27:57.223Z,72.73
2019-02-17T16:30:27.091Z,67.57
2019-02-17T16:32:57.182Z,64.83
2019-02-17T16:35:27.064Z,65.47
2019-02-17T16:37:56.722Z,68.17
2019-02-17T16:40:26.558Z,71.47
2019-02-17T16:42:57.227Z,70.30
2019-02-17T16:45:27.048Z,67.40
2019-02-17T16:47:57.575Z,63.23
2019-02-17T16:50:33.319Z,83.40
2019-02-17T16:53:04.296Z,70.27
2019-02-17T16:55:33.969Z,67.37
2019-02-17T16:58:03.725Z,66.90
2019-02-17T17:00:33.428Z,64.67
2019-02-17T17:03:03.155Z,65.80
2019-02-17T17:05:32.921Z,69.20
2019-02-17T17:08:02.581Z,65.97
2019-02-17T17:10:32.259Z,65.80
2019-02-17T17:13:01.966Z,62.87
2019-02-17T17:15:31.698Z,65.53
2019-02-17T17:18:01.578Z,61.73
2019-02-17T17:20:50.552Z,66.50
2019-02-17T17:23:20.409Z,62.73
2019-02-17T17:25:50.404Z,63.63
2019-02-17T17:28:20.416Z,61.70
2019-02-17T17:30:50.077Z,64.50
2019-02-17T17:33:19.833Z,60.47
2019-02-17T17:35:49.602Z,62.00
2019-02-17T17:38:19.320Z,63.80
2019-02-17T17:40:49.053Z,58.93
2019-02-17T17:43:18.753Z,62.07
2019-02-17T17:45:48.503Z,60.97
2019-02-17T17:48:18.294Z,63.00
2019-02-17T17:50:48.033Z,63.00
2019-02-17T17:53:17.890Z,64.00
2019-02-17T17:55:49.148Z,63.00
2019-02-17T17:58:18.960Z,64.93
2019-02-17T18:00:48.708Z,62.57
2019-02-17T18:03:18.390Z,62.00
2019-02-17T18:05:48.093Z,62.10
2019-02-17T18:08:17.857Z,63.47
2019-02-17T18:10:47.536Z,65.67
2019-02-17T18:13:18.890Z,68.60
2019-02-17T18:15:48.556Z,67.03
2019-02-17T18:18:18.238Z,62.77
2019-02-17T18:21:07.112Z,66.63
2019-02-17T18:23:36.784Z,66.07
2019-02-17T18:26:06.778Z,64.53
2019-02-17T18:28:37.265Z,62.20
2019-02-17T18:31:07.068Z,62.50
2019-02-17T18:33:38.928Z,60.37
2019-02-17T18:36:27.783Z,62.13
2019-02-17T18:38:57.536Z,59.97
2019-02-17T18:41:27.308Z,55.97
2019-02-17T18:43:57.811Z,61.90
2019-02-17T18:46:27.480Z,59.07
2019-02-17T18:48:58.383Z,63.77
2019-02-17T18:51:28.155Z,55.03
2019-02-17T18:53:57.954Z,66.53
2019-02-17T18:56:27.618Z,60.00
2019-02-17T18:58:57.396Z,62.97
2019-02-17T19:01:27.068Z,61.03
2019-02-17T19:03:56.799Z,63.87
2019-02-17T19:06:26.502Z,62.47
2019-02-17T19:08:57.475Z,60.20
2019-02-17T19:11:27.138Z,63.90
2019-02-17T19:14:16.106Z,55.97
2019-02-17T19:16:45.838Z,59.93
2019-02-17T19:19:15.592Z,61.37
2019-02-17T19:21:45.375Z,61.10
2019-02-17T19:24:15.046Z,59.60
2019-02-17T19:26:44.786Z,64.00
2019-02-17T19:29:16.471Z,59.13
2019-02-17T19:31:46.136Z,59.83
2019-02-17T19:34:16.041Z,59.67
2019-02-17T19:36:46.059Z,60.53
2019-02-17T19:39:18.520Z,59.63
2019-02-17T19:41:51.546Z,57.03
2019-02-17T19:44:21.248Z,59.07
2019-02-17T19:46:51.134Z,61.37
2019-02-17T19:49:20.848Z,59.20
2019-02-17T19:51:50.522Z,60.47
2019-02-17T19:54:20.278Z,65.73
2019-02-17T19:56:50.018Z,60.83
2019-02-17T19:59:19.721Z,62.77
2019-02-17T20:01:50.341Z,63.50
2019-02-17T20:04:21.657Z,61.17
2019-02-17T20:06:52.869Z,63.87
2019-02-17T20:09:22.533Z,61.73
2019-02-17T20:11:52.496Z,63.73
2019-02-17T20:14:23.742Z,60.23
2019-02-17T20:16:53.672Z,64.33
2019-02-17T20:19:25.619Z,56.77
2019-02-17T20:21:55.299Z,64.13
2019-02-17T20:24:24.982Z,59.80
2019-02-17T20:26:54.653Z,58.63
2019-02-17T20:29:24.361Z,63.73
2019-02-17T20:31:54.112Z,57.47
2019-02-17T20:34:23.812Z,61.83
2019-02-17T20:36:53.644Z,58.70
2019-02-17T20:39:23.378Z,58.43
2019-02-17T20:41:53.079Z,61.67
2019-02-17T20:44:22.765Z,55.73
2019-02-17T20:46:52.444Z,60.37
2019-02-17T20:49:22.113Z,56.97
2019-02-17T20:51:51.887Z,58.80
2019-02-17T20:54:21.699Z,63.10
2019-02-17T20:56:51.368Z,58.40
2019-02-17T20:59:21.470Z,59.33
2019-02-17T21:01:51.144Z,59.53
2019-02-17T21:04:20.914Z,64.07
2019-02-17T21:06:50.674Z,56.90
2019-02-17T21:09:20.411Z,54.60
2019-02-17T21:11:55.546Z,66.03
2019-02-17T21:14:44.562Z,64.03
2019-02-17T21:17:14.243Z,56.00
2019-02-17T21:19:44.396Z,64.40
2019-02-17T21:22:14.353Z,65.70
2019-02-17T21:24:44.486Z,58.33
2019-02-17T21:27:14.971Z,58.70
2019-02-17T21:29:44.763Z,64.93
2019-02-17T21:32:14.438Z,62.77
2019-02-17T21:34:44.118Z,62.93
2019-02-17T21:37:13.813Z,62.97
2019-02-17T21:39:43.495Z,60.53
2019-02-17T21:42:13.188Z,57.13
2019-02-17T21:44:42.874Z,63.50
2019-02-17T21:47:12.597Z,60.47
2019-02-17T21:49:43.765Z,62.93
2019-02-17T21:52:13.441Z,60.87
2019-02-17T21:55:02.454Z,66.23
2019-02-17T21:57:32.139Z,63.87
2019-02-17T22:00:01.810Z,62.13
2019-02-17T22:02:31.471Z,60.87
2019-02-17T22:05:01.264Z,63.10
2019-02-17T22:07:31.270Z,65.47
2019-02-17T22:10:01.291Z,63.73
2019-02-17T22:12:31.114Z,58.90
2019-02-17T22:15:03.116Z,62.83
2019-02-17T22:17:32.785Z,58.10
2019-02-17T22:20:02.490Z,62.37
2019-02-17T22:22:32.151Z,59.83
2019-02-17T22:25:01.852Z,58.03
2019-02-17T22:27:31.546Z,58.07
2019-02-17T22:30:01.232Z,61.37
2019-02-17T22:32:32.435Z,59.07
2019-02-17T22:35:02.150Z,57.63
2019-02-17T22:37:32.320Z,59.90
2019-02-17T22:40:03.690Z,69.60
2019-02-17T22:42:33.378Z,64.60
2019-02-17T22:45:05.766Z,56.90
2019-02-17T22:47:35.435Z,55.33
2019-02-17T22:50:08.506Z,60.83
2019-02-17T22:52:38.220Z,57.57
2019-02-17T22:55:13.478Z,56.80
2019-02-17T22:57:45.458Z,57.97
2019-02-17T23:00:47.768Z,52.47
2019-02-17T23:03:17.590Z,53.63
2019-02-17T23:05:47.649Z,59.27
2019-02-17T23:08:17.347Z,55.10
2019-02-17T23:10:48.720Z,51.00
2019-02-17T23:13:18.467Z,56.63
2019-02-17T23:15:49.419Z,60.27
2019-02-17T23:18:19.120Z,61.97
2019-02-17T23:20:48.788Z,56.30
2019-02-17T23:23:18.796Z,58.97
2019-02-17T23:25:48.335Z,56.67
2019-02-17T23:28:18.086Z,59.87
2019-02-17T23:30:47.750Z,61.83
2019-02-17T23:33:17.459Z,59.27
2019-02-17T23:35:47.204Z,58.90
2019-02-17T23:38:16.880Z,56.00
2019-02-17T23:40:46.582Z,61.83
2019-02-17T23:43:17.753Z,57.33
2019-02-17T23:45:47.492Z,55.23
2019-02-17T23:48:17.852Z,53.20
2019-02-17T23:50:47.583Z,60.30
2019-02-17T23:53:18.719Z,60.87
2019-02-17T23:55:49.876Z,58.20
2019-02-17T23:58:19.642Z,56.77
